Archival Weather

Abadan

Abadan, Iran (OIAA)

Report from: Thursday, September 21, 2023 7:00 PM UTC
Current time: Sunday, February 25, 2024 9:02 PM UTC

Current weather – Weather history – Daily summaries
Weather forecast

Temperature33.0°C (91.4°F)
Heat index30.7°C (87.2°F)
Dew point2.0°C (35.6°F)
Winds 6 kts (3.1 m/s, 6.9 mph) Northwest (320°)
Clouds Sky clear
Altimeter29.68 in.Hg (1005 mB)
Relative humidity14 %
Density altitude2,437 ft. (743 m)
Remarks Ceiling and visibility OK
Flight conditions Visual Meteorological Conditions
Raw dataOIAA 211900Z 32006KT CAVOK 33/02 Q1005
An error has occurred. This application may no longer respond until reloaded. Reload 🗙